sensor_id;sensor_type;location;lat;lon;timestamp;P1;durP1;ratioP1;P2;durP2;ratioP2
142;SDS011;63667;49.046;8.468;2022-12-19T00:02:23;151.77;;;42.70;;
142;SDS011;63667;49.046;8.468;2022-12-19T00:04:50;157.37;;;43.27;;
142;SDS011;63667;49.046;8.468;2022-12-19T00:07:18;151.63;;;41.90;;
142;SDS011;63667;49.046;8.468;2022-12-19T00:09:45;141.93;;;41.30;;
142;SDS011;63667;49.046;8.468;2022-12-19T00:12:13;148.43;;;43.40;;
142;SDS011;63667;49.046;8.468;2022-12-19T00:14:41;147.63;;;40.87;;
142;SDS011;63667;49.046;8.468;2022-12-19T00:17:09;155.27;;;41.03;;
142;SDS011;63667;49.046;8.468;2022-12-19T00:19:37;161.93;;;44.97;;
142;SDS011;63667;49.046;8.468;2022-12-19T00:22:04;167.33;;;44.50;;
142;SDS011;63667;49.046;8.468;2022-12-19T00:24:31;158.40;;;41.13;;
142;SDS011;63667;49.046;8.468;2022-12-19T00:26:59;147.63;;;42.00;;
142;SDS011;63667;49.046;8.468;2022-12-19T00:29:26;169.60;;;45.67;;
142;SDS011;63667;49.046;8.468;2022-12-19T00:31:54;144.30;;;41.67;;
142;SDS011;63667;49.046;8.468;2022-12-19T00:34:23;150.57;;;41.60;;
142;SDS011;63667;49.046;8.468;2022-12-19T00:36:50;151.43;;;42.67;;
142;SDS011;63667;49.046;8.468;2022-12-19T00:39:17;134.10;;;38.20;;
142;SDS011;63667;49.046;8.468;2022-12-19T00:41:45;148.40;;;40.50;;
142;SDS011;63667;49.046;8.468;2022-12-19T00:44:15;142.20;;;40.70;;
142;SDS011;63667;49.046;8.468;2022-12-19T00:46:42;142.60;;;40.60;;
142;SDS011;63667;49.046;8.468;2022-12-19T00:49:11;132.97;;;40.40;;
142;SDS011;63667;49.046;8.468;2022-12-19T00:51:38;141.73;;;40.67;;
142;SDS011;63667;49.046;8.468;2022-12-19T00:54:06;129.37;;;38.70;;
142;SDS011;63667;49.046;8.468;2022-12-19T00:56:39;138.03;;;39.80;;
142;SDS011;63667;49.046;8.468;2022-12-19T00:59:06;140.77;;;40.63;;
142;SDS011;63667;49.046;8.468;2022-12-19T01:01:35;141.30;;;40.87;;
142;SDS011;63667;49.046;8.468;2022-12-19T01:04:04;153.50;;;40.40;;
142;SDS011;63667;49.046;8.468;2022-12-19T01:06:31;141.87;;;40.17;;
142;SDS011;63667;49.046;8.468;2022-12-19T01:08:59;123.13;;;38.87;;
142;SDS011;63667;49.046;8.468;2022-12-19T01:11:26;142.10;;;41.33;;
142;SDS011;63667;49.046;8.468;2022-12-19T01:14:12;135.40;;;38.80;;
142;SDS011;63667;49.046;8.468;2022-12-19T01:16:39;136.40;;;40.40;;
142;SDS011;63667;49.046;8.468;2022-12-19T01:19:06;131.63;;;39.93;;
142;SDS011;63667;49.046;8.468;2022-12-19T01:21:33;136.83;;;38.90;;
142;SDS011;63667;49.046;8.468;2022-12-19T01:24:01;143.67;;;39.53;;
142;SDS011;63667;49.046;8.468;2022-12-19T01:26:29;137.57;;;39.57;;
142;SDS011;63667;49.046;8.468;2022-12-19T01:28:59;123.77;;;38.60;;
142;SDS011;63667;49.046;8.468;2022-12-19T01:31:26;131.60;;;39.23;;
142;SDS011;63667;49.046;8.468;2022-12-19T01:33:54;128.90;;;38.03;;
142;SDS011;63667;49.046;8.468;2022-12-19T01:36:24;121.00;;;37.43;;
142;SDS011;63667;49.046;8.468;2022-12-19T01:38:53;132.03;;;39.60;;
142;SDS011;63667;49.046;8.468;2022-12-19T01:41:21;124.87;;;38.77;;
142;SDS011;63667;49.046;8.468;2022-12-19T01:46:25;140.53;;;41.87;;
142;SDS011;63667;49.046;8.468;2022-12-19T01:48:56;131.00;;;41.07;;
142;SDS011;63667;49.046;8.468;2022-12-19T01:51:32;125.57;;;38.50;;
142;SDS011;63667;49.046;8.468;2022-12-19T01:54:09;131.73;;;38.07;;
142;SDS011;63667;49.046;8.468;2022-12-19T01:56:41;125.00;;;37.27;;
142;SDS011;63667;49.046;8.468;2022-12-19T01:59:16;132.90;;;39.07;;
142;SDS011;63667;49.046;8.468;2022-12-19T02:01:50;132.50;;;39.23;;
142;SDS011;63667;49.046;8.468;2022-12-19T02:04:24;125.77;;;38.00;;
142;SDS011;63667;49.046;8.468;2022-12-19T02:06:56;136.33;;;38.97;;
142;SDS011;63667;49.046;8.468;2022-12-19T02:09:25;134.83;;;39.07;;
142;SDS011;63667;49.046;8.468;2022-12-19T02:11:53;123.60;;;37.63;;
142;SDS011;63667;49.046;8.468;2022-12-19T02:14:20;114.60;;;37.77;;
142;SDS011;63667;49.046;8.468;2022-12-19T02:17:03;120.23;;;37.47;;
142;SDS011;63667;49.046;8.468;2022-12-19T02:19:47;123.23;;;36.83;;
142;SDS011;63667;49.046;8.468;2022-12-19T02:23:04;120.10;;;37.53;;
142;SDS011;63667;49.046;8.468;2022-12-19T02:34:38;117.60;;;37.13;;
142;SDS011;63667;49.046;8.468;2022-12-19T02:37:40;121.20;;;39.20;;
142;SDS011;63667;49.046;8.468;2022-12-19T02:40:14;127.77;;;38.13;;
142;SDS011;63667;49.046;8.468;2022-12-19T02:43:11;124.97;;;37.70;;
142;SDS011;63667;49.046;8.468;2022-12-19T02:45:40;118.63;;;36.97;;
142;SDS011;63667;49.046;8.468;2022-12-19T02:48:07;122.00;;;39.07;;
142;SDS011;63667;49.046;8.468;2022-12-19T02:50:35;119.17;;;37.27;;
142;SDS011;63667;49.046;8.468;2022-12-19T02:53:10;112.90;;;37.20;;
142;SDS011;63667;49.046;8.468;2022-12-19T02:55:49;121.10;;;38.07;;
142;SDS011;63667;49.046;8.468;2022-12-19T02:58:30;126.40;;;39.43;;
142;SDS011;63667;49.046;8.468;2022-12-19T03:04:28;120.07;;;38.37;;
142;SDS011;63667;49.046;8.468;2022-12-19T03:09:57;119.10;;;37.47;;
142;SDS011;63667;49.046;8.468;2022-12-19T03:12:39;118.13;;;35.87;;
142;SDS011;63667;49.046;8.468;2022-12-19T03:15:13;114.20;;;35.03;;
142;SDS011;63667;49.046;8.468;2022-12-19T03:17:40;113.77;;;34.77;;
142;SDS011;63667;49.046;8.468;2022-12-19T03:20:07;108.67;;;34.00;;
142;SDS011;63667;49.046;8.468;2022-12-19T03:22:44;117.67;;;35.63;;
142;SDS011;63667;49.046;8.468;2022-12-19T03:25:10;112.77;;;34.40;;
142;SDS011;63667;49.046;8.468;2022-12-19T03:27:38;126.33;;;36.30;;
142;SDS011;63667;49.046;8.468;2022-12-19T03:30:08;120.23;;;35.90;;
142;SDS011;63667;49.046;8.468;2022-12-19T03:32:38;114.47;;;36.50;;
142;SDS011;63667;49.046;8.468;2022-12-19T03:37:37;114.17;;;36.33;;
142;SDS011;63667;49.046;8.468;2022-12-19T03:40:13;121.17;;;35.93;;
142;SDS011;63667;49.046;8.468;2022-12-19T03:42:43;113.27;;;36.60;;
142;SDS011;63667;49.046;8.468;2022-12-19T03:48:30;108.80;;;35.03;;
142;SDS011;63667;49.046;8.468;2022-12-19T03:51:21;111.03;;;35.67;;
142;SDS011;63667;49.046;8.468;2022-12-19T03:54:08;105.10;;;34.87;;
142;SDS011;63667;49.046;8.468;2022-12-19T04:01:58;113.87;;;35.07;;
142;SDS011;63667;49.046;8.468;2022-12-19T04:04:26;105.40;;;34.90;;
142;SDS011;63667;49.046;8.468;2022-12-19T04:06:54;106.97;;;36.50;;
142;SDS011;63667;49.046;8.468;2022-12-19T04:09:23;108.93;;;32.37;;
142;SDS011;63667;49.046;8.468;2022-12-19T04:11:52;99.47;;;33.40;;
142;SDS011;63667;49.046;8.468;2022-12-19T04:14:31;104.03;;;34.00;;
142;SDS011;63667;49.046;8.468;2022-12-19T04:20:20;121.63;;;34.57;;
142;SDS011;63667;49.046;8.468;2022-12-19T04:22:51;98.10;;;33.70;;
142;SDS011;63667;49.046;8.468;2022-12-19T04:25:36;109.50;;;35.17;;
142;SDS011;63667;49.046;8.468;2022-12-19T04:28:11;134.03;;;36.80;;
142;SDS011;63667;49.046;8.468;2022-12-19T04:30:44;111.17;;;35.40;;
142;SDS011;63667;49.046;8.468;2022-12-19T04:33:13;120.00;;;36.23;;
142;SDS011;63667;49.046;8.468;2022-12-19T04:35:41;113.47;;;34.90;;
142;SDS011;63667;49.046;8.468;2022-12-19T04:38:08;102.57;;;34.00;;
142;SDS011;63667;49.046;8.468;2022-12-19T04:40:35;110.30;;;35.47;;
142;SDS011;63667;49.046;8.468;2022-12-19T04:43:02;111.30;;;34.57;;
142;SDS011;63667;49.046;8.468;2022-12-19T04:45:32;114.90;;;36.93;;
142;SDS011;63667;49.046;8.468;2022-12-19T04:47:58;99.07;;;35.17;;
142;SDS011;63667;49.046;8.468;2022-12-19T04:50:26;114.60;;;35.53;;
142;SDS011;63667;49.046;8.468;2022-12-19T04:52:56;112.13;;;35.63;;
142;SDS011;63667;49.046;8.468;2022-12-19T04:55:24;106.40;;;35.93;;
142;SDS011;63667;49.046;8.468;2022-12-19T04:57:51;100.13;;;34.37;;
142;SDS011;63667;49.046;8.468;2022-12-19T05:00:19;104.43;;;34.00;;
142;SDS011;63667;49.046;8.468;2022-12-19T05:02:46;104.40;;;33.77;;
142;SDS011;63667;49.046;8.468;2022-12-19T05:05:13;122.60;;;34.57;;
142;SDS011;63667;49.046;8.468;2022-12-19T05:07:43;109.07;;;33.10;;
142;SDS011;63667;49.046;8.468;2022-12-19T05:10:11;107.97;;;35.47;;
142;SDS011;63667;49.046;8.468;2022-12-19T05:12:43;94.93;;;34.70;;
142;SDS011;63667;49.046;8.468;2022-12-19T05:15:13;105.83;;;34.70;;
142;SDS011;63667;49.046;8.468;2022-12-19T05:17:40;112.90;;;36.80;;
142;SDS011;63667;49.046;8.468;2022-12-19T05:20:08;104.83;;;33.07;;
142;SDS011;63667;49.046;8.468;2022-12-19T05:22:37;105.53;;;34.13;;
142;SDS011;63667;49.046;8.468;2022-12-19T05:25:03;108.30;;;34.23;;
142;SDS011;63667;49.046;8.468;2022-12-19T05:27:32;105.57;;;34.97;;
142;SDS011;63667;49.046;8.468;2022-12-19T05:30:00;114.23;;;33.77;;
142;SDS011;63667;49.046;8.468;2022-12-19T05:32:30;108.97;;;33.60;;
142;SDS011;63667;49.046;8.468;2022-12-19T05:34:59;107.30;;;33.83;;
142;SDS011;63667;49.046;8.468;2022-12-19T05:37:27;110.43;;;33.93;;
142;SDS011;63667;49.046;8.468;2022-12-19T05:39:55;112.13;;;34.77;;
142;SDS011;63667;49.046;8.468;2022-12-19T05:42:23;101.33;;;34.50;;
142;SDS011;63667;49.046;8.468;2022-12-19T05:44:51;100.40;;;32.40;;
142;SDS011;63667;49.046;8.468;2022-12-19T05:47:20;105.37;;;34.50;;
142;SDS011;63667;49.046;8.468;2022-12-19T05:49:48;104.33;;;33.03;;
142;SDS011;63667;49.046;8.468;2022-12-19T05:52:15;95.97;;;33.17;;
142;SDS011;63667;49.046;8.468;2022-12-19T05:54:42;109.43;;;34.10;;
142;SDS011;63667;49.046;8.468;2022-12-19T05:57:10;114.23;;;34.87;;
142;SDS011;63667;49.046;8.468;2022-12-19T05:59:38;100.17;;;32.60;;
142;SDS011;63667;49.046;8.468;2022-12-19T06:02:05;92.50;;;33.30;;
142;SDS011;63667;49.046;8.468;2022-12-19T06:04:36;94.63;;;32.20;;
142;SDS011;63667;49.046;8.468;2022-12-19T06:07:04;97.23;;;32.90;;
142;SDS011;63667;49.046;8.468;2022-12-19T06:09:32;109.50;;;34.40;;
142;SDS011;63667;49.046;8.468;2022-12-19T06:11:59;112.70;;;33.37;;
142;SDS011;63667;49.046;8.468;2022-12-19T06:14:27;94.23;;;33.17;;
142;SDS011;63667;49.046;8.468;2022-12-19T06:16:54;101.83;;;33.90;;
142;SDS011;63667;49.046;8.468;2022-12-19T06:19:22;99.90;;;33.50;;
142;SDS011;63667;49.046;8.468;2022-12-19T06:21:51;95.50;;;33.00;;
142;SDS011;63667;49.046;8.468;2022-12-19T06:24:18;88.53;;;31.60;;
142;SDS011;63667;49.046;8.468;2022-12-19T06:26:46;81.53;;;30.97;;
142;SDS011;63667;49.046;8.468;2022-12-19T06:29:13;102.77;;;32.47;;
142;SDS011;63667;49.046;8.468;2022-12-19T06:31:42;104.63;;;34.57;;
142;SDS011;63667;49.046;8.468;2022-12-19T06:34:09;100.17;;;34.17;;
142;SDS011;63667;49.046;8.468;2022-12-19T06:36:36;101.47;;;35.20;;
142;SDS011;63667;49.046;8.468;2022-12-19T06:39:10;96.03;;;32.13;;
142;SDS011;63667;49.046;8.468;2022-12-19T06:41:39;94.67;;;32.60;;
142;SDS011;63667;49.046;8.468;2022-12-19T06:44:25;101.73;;;33.87;;
142;SDS011;63667;49.046;8.468;2022-12-19T06:46:52;92.73;;;32.13;;
142;SDS011;63667;49.046;8.468;2022-12-19T06:49:19;106.43;;;33.23;;
142;SDS011;63667;49.046;8.468;2022-12-19T06:51:47;91.87;;;31.93;;
142;SDS011;63667;49.046;8.468;2022-12-19T06:54:14;95.13;;;33.10;;
142;SDS011;63667;49.046;8.468;2022-12-19T06:56:42;99.00;;;33.17;;
142;SDS011;63667;49.046;8.468;2022-12-19T06:59:13;95.23;;;33.43;;
142;SDS011;63667;49.046;8.468;2022-12-19T07:04:37;89.20;;;31.10;;
142;SDS011;63667;49.046;8.468;2022-12-19T07:07:26;103.43;;;35.07;;
142;SDS011;63667;49.046;8.468;2022-12-19T07:09:54;98.93;;;33.73;;
142;SDS011;63667;49.046;8.468;2022-12-19T07:12:29;95.97;;;32.30;;
142;SDS011;63667;49.046;8.468;2022-12-19T07:14:55;95.73;;;32.67;;
142;SDS011;63667;49.046;8.468;2022-12-19T07:17:22;111.50;;;34.13;;
142;SDS011;63667;49.046;8.468;2022-12-19T07:19:50;103.07;;;33.40;;
142;SDS011;63667;49.046;8.468;2022-12-19T07:22:18;97.97;;;31.90;;
142;SDS011;63667;49.046;8.468;2022-12-19T07:24:45;108.77;;;32.87;;
142;SDS011;63667;49.046;8.468;2022-12-19T07:27:11;90.03;;;30.80;;
142;SDS011;63667;49.046;8.468;2022-12-19T07:29:37;88.17;;;32.27;;
142;SDS011;63667;49.046;8.468;2022-12-19T07:32:04;94.53;;;32.73;;
142;SDS011;63667;49.046;8.468;2022-12-19T07:34:30;83.47;;;31.27;;
142;SDS011;63667;49.046;8.468;2022-12-19T07:36:57;93.73;;;33.37;;
142;SDS011;63667;49.046;8.468;2022-12-19T07:39:25;101.60;;;32.87;;
142;SDS011;63667;49.046;8.468;2022-12-19T07:41:53;100.57;;;33.10;;
142;SDS011;63667;49.046;8.468;2022-12-19T07:44:20;106.77;;;31.50;;
142;SDS011;63667;49.046;8.468;2022-12-19T07:46:49;89.27;;;31.83;;
142;SDS011;63667;49.046;8.468;2022-12-19T07:49:15;93.03;;;31.67;;
142;SDS011;63667;49.046;8.468;2022-12-19T07:51:43;94.83;;;33.57;;
142;SDS011;63667;49.046;8.468;2022-12-19T07:54:13;92.17;;;32.20;;
142;SDS011;63667;49.046;8.468;2022-12-19T07:56:41;110.70;;;33.97;;
142;SDS011;63667;49.046;8.468;2022-12-19T07:59:09;99.33;;;33.30;;
142;SDS011;63667;49.046;8.468;2022-12-19T08:01:37;99.50;;;32.63;;
142;SDS011;63667;49.046;8.468;2022-12-19T08:04:05;92.17;;;31.80;;
142;SDS011;63667;49.046;8.468;2022-12-19T08:06:33;93.13;;;32.43;;
142;SDS011;63667;49.046;8.468;2022-12-19T08:09:00;92.00;;;31.73;;
142;SDS011;63667;49.046;8.468;2022-12-19T08:11:32;95.77;;;33.60;;
142;SDS011;63667;49.046;8.468;2022-12-19T08:13:58;98.70;;;32.57;;
142;SDS011;63667;49.046;8.468;2022-12-19T08:16:26;92.33;;;32.20;;
142;SDS011;63667;49.046;8.468;2022-12-19T08:18:52;85.23;;;31.20;;
142;SDS011;63667;49.046;8.468;2022-12-19T08:21:20;89.10;;;31.50;;
142;SDS011;63667;49.046;8.468;2022-12-19T08:23:48;91.23;;;32.20;;
142;SDS011;63667;49.046;8.468;2022-12-19T08:26:18;115.87;;;37.03;;
142;SDS011;63667;49.046;8.468;2022-12-19T08:28:53;116.47;;;37.60;;
142;SDS011;63667;49.046;8.468;2022-12-19T08:31:22;121.23;;;38.13;;
142;SDS011;63667;49.046;8.468;2022-12-19T08:33:50;129.23;;;39.53;;
142;SDS011;63667;49.046;8.468;2022-12-19T08:36:19;98.77;;;32.90;;
142;SDS011;63667;49.046;8.468;2022-12-19T08:38:47;94.17;;;29.47;;
142;SDS011;63667;49.046;8.468;2022-12-19T08:41:15;80.43;;;29.77;;
142;SDS011;63667;49.046;8.468;2022-12-19T08:43:47;85.93;;;30.63;;
142;SDS011;63667;49.046;8.468;2022-12-19T08:46:19;82.67;;;30.63;;
142;SDS011;63667;49.046;8.468;2022-12-19T08:48:45;71.37;;;28.70;;
142;SDS011;63667;49.046;8.468;2022-12-19T08:51:14;85.40;;;30.20;;
142;SDS011;63667;49.046;8.468;2022-12-19T08:53:42;79.53;;;29.97;;
142;SDS011;63667;49.046;8.468;2022-12-19T08:56:14;92.60;;;30.87;;
142;SDS011;63667;49.046;8.468;2022-12-19T08:58:42;81.43;;;29.57;;
142;SDS011;63667;49.046;8.468;2022-12-19T09:01:15;78.53;;;29.40;;
142;SDS011;63667;49.046;8.468;2022-12-19T09:03:44;72.50;;;28.10;;
142;SDS011;63667;49.046;8.468;2022-12-19T09:06:12;61.37;;;25.87;;
142;SDS011;63667;49.046;8.468;2022-12-19T09:08:39;80.80;;;29.50;;
142;SDS011;63667;49.046;8.468;2022-12-19T09:11:08;76.50;;;27.13;;
142;SDS011;63667;49.046;8.468;2022-12-19T09:13:44;80.53;;;29.40;;
142;SDS011;63667;49.046;8.468;2022-12-19T09:18:43;66.73;;;27.07;;
142;SDS011;63667;49.046;8.468;2022-12-19T09:21:10;66.13;;;26.70;;
142;SDS011;63667;49.046;8.468;2022-12-19T09:23:38;66.67;;;27.23;;
142;SDS011;63667;49.046;8.468;2022-12-19T09:26:07;85.67;;;27.40;;
142;SDS011;63667;49.046;8.468;2022-12-19T09:28:36;71.73;;;26.50;;
142;SDS011;63667;49.046;8.468;2022-12-19T09:31:09;73.73;;;26.50;;
142;SDS011;63667;49.046;8.468;2022-12-19T09:33:37;74.20;;;25.63;;
142;SDS011;63667;49.046;8.468;2022-12-19T09:36:05;71.70;;;26.27;;
142;SDS011;63667;49.046;8.468;2022-12-19T09:38:33;78.20;;;26.50;;
142;SDS011;63667;49.046;8.468;2022-12-19T09:46:46;72.33;;;27.00;;
142;SDS011;63667;49.046;8.468;2022-12-19T09:49:16;71.60;;;26.03;;
142;SDS011;63667;49.046;8.468;2022-12-19T09:51:58;74.43;;;25.80;;
142;SDS011;63667;49.046;8.468;2022-12-19T09:59:52;73.63;;;26.57;;
142;SDS011;63667;49.046;8.468;2022-12-19T10:05:44;67.10;;;26.67;;
142;SDS011;63667;49.046;8.468;2022-12-19T10:07:59;72.57;;;27.40;;
142;SDS011;63667;49.046;8.468;2022-12-19T10:13:28;64.00;;;26.27;;
142;SDS011;63667;49.046;8.468;2022-12-19T10:19:05;61.63;;;24.33;;
142;SDS011;63667;49.046;8.468;2022-12-19T10:22:04;69.50;;;27.40;;
142;SDS011;63667;49.046;8.468;2022-12-19T10:30:14;66.13;;;26.10;;
142;SDS011;63667;49.046;8.468;2022-12-19T10:35:35;68.40;;;27.30;;
142;SDS011;63667;49.046;8.468;2022-12-19T10:40:44;69.30;;;26.50;;
142;SDS011;63667;49.046;8.468;2022-12-19T10:46:52;66.47;;;25.40;;
142;SDS011;63667;49.046;8.468;2022-12-19T10:49:01;66.80;;;28.40;;
142;SDS011;63667;49.046;8.468;2022-12-19T11:02:44;70.47;;;27.17;;
142;SDS011;63667;49.046;8.468;2022-12-19T11:05:29;70.80;;;27.30;;
142;SDS011;63667;49.046;8.468;2022-12-19T11:26:02;75.30;;;29.07;;
142;SDS011;63667;49.046;8.468;2022-12-19T11:31:05;70.17;;;29.80;;
142;SDS011;63667;49.046;8.468;2022-12-19T11:33:42;72.80;;;28.90;;
142;SDS011;63667;49.046;8.468;2022-12-19T11:36:22;83.53;;;29.33;;
142;SDS011;63667;49.046;8.468;2022-12-19T11:39:02;89.27;;;31.00;;
142;SDS011;63667;49.046;8.468;2022-12-19T11:41:36;78.60;;;29.07;;
142;SDS011;63667;49.046;8.468;2022-12-19T11:44:21;72.00;;;30.20;;
142;SDS011;63667;49.046;8.468;2022-12-19T11:49:48;75.10;;;29.00;;
142;SDS011;63667;49.046;8.468;2022-12-19T11:52:22;83.77;;;31.17;;
142;SDS011;63667;49.046;8.468;2022-12-19T11:55:48;77.43;;;29.63;;
142;SDS011;63667;49.046;8.468;2022-12-19T11:58:10;78.67;;;29.07;;
142;SDS011;63667;49.046;8.468;2022-12-19T12:00:45;82.03;;;30.23;;
142;SDS011;63667;49.046;8.468;2022-12-19T12:06:20;77.37;;;29.93;;
142;SDS011;63667;49.046;8.468;2022-12-19T12:08:54;65.63;;;26.77;;
142;SDS011;63667;49.046;8.468;2022-12-19T12:11:45;64.30;;;27.43;;
142;SDS011;63667;49.046;8.468;2022-12-19T12:14:45;66.60;;;27.17;;
142;SDS011;63667;49.046;8.468;2022-12-19T12:17:36;65.90;;;27.90;;
142;SDS011;63667;49.046;8.468;2022-12-19T12:23:27;81.07;;;29.53;;
142;SDS011;63667;49.046;8.468;2022-12-19T12:29:05;79.13;;;30.40;;
142;SDS011;63667;49.046;8.468;2022-12-19T12:31:45;79.17;;;29.50;;
142;SDS011;63667;49.046;8.468;2022-12-19T12:34:28;85.63;;;32.33;;
142;SDS011;63667;49.046;8.468;2022-12-19T12:45:42;75.60;;;29.17;;
142;SDS011;63667;49.046;8.468;2022-12-19T12:48:13;79.00;;;30.23;;
142;SDS011;63667;49.046;8.468;2022-12-19T12:50:46;82.73;;;30.67;;
142;SDS011;63667;49.046;8.468;2022-12-19T12:53:18;77.57;;;30.00;;
142;SDS011;63667;49.046;8.468;2022-12-19T12:55:48;77.77;;;30.37;;
142;SDS011;63667;49.046;8.468;2022-12-19T13:04:03;79.20;;;29.30;;
142;SDS011;63667;49.046;8.468;2022-12-19T13:09:34;70.77;;;28.33;;
142;SDS011;63667;49.046;8.468;2022-12-19T13:12:02;70.53;;;28.10;;
142;SDS011;63667;49.046;8.468;2022-12-19T13:25:28;81.47;;;29.93;;
142;SDS011;63667;49.046;8.468;2022-12-19T13:39:56;84.50;;;29.83;;
142;SDS011;63667;49.046;8.468;2022-12-19T13:42:27;83.03;;;30.33;;
142;SDS011;63667;49.046;8.468;2022-12-19T13:45:50;82.70;;;30.33;;
142;SDS011;63667;49.046;8.468;2022-12-19T13:48:22;86.43;;;29.70;;
142;SDS011;63667;49.046;8.468;2022-12-19T13:50:51;82.63;;;29.40;;
142;SDS011;63667;49.046;8.468;2022-12-19T13:53:20;81.30;;;29.17;;
142;SDS011;63667;49.046;8.468;2022-12-19T13:55:49;83.90;;;28.70;;
142;SDS011;63667;49.046;8.468;2022-12-19T13:58:21;88.90;;;28.67;;
142;SDS011;63667;49.046;8.468;2022-12-19T14:00:51;92.53;;;31.97;;
142;SDS011;63667;49.046;8.468;2022-12-19T14:03:21;82.33;;;29.77;;
142;SDS011;63667;49.046;8.468;2022-12-19T14:06:03;93.73;;;32.63;;
142;SDS011;63667;49.046;8.468;2022-12-19T14:08:34;93.43;;;30.83;;
142;SDS011;63667;49.046;8.468;2022-12-19T14:11:01;82.33;;;31.90;;
142;SDS011;63667;49.046;8.468;2022-12-19T14:13:32;99.97;;;32.83;;
142;SDS011;63667;49.046;8.468;2022-12-19T14:16:25;86.37;;;30.93;;
142;SDS011;63667;49.046;8.468;2022-12-19T14:18:51;82.70;;;30.23;;
142;SDS011;63667;49.046;8.468;2022-12-19T14:21:21;83.73;;;30.90;;
142;SDS011;63667;49.046;8.468;2022-12-19T14:24:07;89.53;;;31.47;;
142;SDS011;63667;49.046;8.468;2022-12-19T14:26:33;85.57;;;30.20;;
142;SDS011;63667;49.046;8.468;2022-12-19T14:29:01;74.60;;;30.73;;
142;SDS011;63667;49.046;8.468;2022-12-19T14:31:34;83.97;;;30.33;;
142;SDS011;63667;49.046;8.468;2022-12-19T14:34:03;85.70;;;30.37;;
142;SDS011;63667;49.046;8.468;2022-12-19T14:36:30;86.03;;;31.97;;
142;SDS011;63667;49.046;8.468;2022-12-19T14:38:58;95.87;;;33.30;;
142;SDS011;63667;49.046;8.468;2022-12-19T14:44:16;86.87;;;33.73;;
142;SDS011;63667;49.046;8.468;2022-12-19T14:47:09;100.17;;;37.00;;
142;SDS011;63667;49.046;8.468;2022-12-19T14:49:36;96.97;;;34.43;;
142;SDS011;63667;49.046;8.468;2022-12-19T14:52:03;96.33;;;33.50;;
142;SDS011;63667;49.046;8.468;2022-12-19T14:57:53;84.53;;;32.00;;
142;SDS011;63667;49.046;8.468;2022-12-19T15:00:21;96.43;;;33.67;;
142;SDS011;63667;49.046;8.468;2022-12-19T15:02:48;98.03;;;34.30;;
142;SDS011;63667;49.046;8.468;2022-12-19T15:05:15;83.87;;;31.57;;
142;SDS011;63667;49.046;8.468;2022-12-19T15:07:43;92.23;;;33.53;;
142;SDS011;63667;49.046;8.468;2022-12-19T15:12:47;115.10;;;39.27;;
142;SDS011;63667;49.046;8.468;2022-12-19T15:15:52;100.93;;;35.50;;
142;SDS011;63667;49.046;8.468;2022-12-19T15:21:03;124.00;;;39.53;;
142;SDS011;63667;49.046;8.468;2022-12-19T15:23:35;108.53;;;37.93;;
142;SDS011;63667;49.046;8.468;2022-12-19T15:26:05;106.60;;;37.13;;
142;SDS011;63667;49.046;8.468;2022-12-19T15:28:46;100.30;;;35.83;;
142;SDS011;63667;49.046;8.468;2022-12-19T15:33:57;96.30;;;34.17;;
142;SDS011;63667;49.046;8.468;2022-12-19T15:36:24;94.23;;;32.83;;
142;SDS011;63667;49.046;8.468;2022-12-19T15:38:50;88.53;;;32.07;;
142;SDS011;63667;49.046;8.468;2022-12-19T15:41:19;95.53;;;34.60;;
142;SDS011;63667;49.046;8.468;2022-12-19T15:43:47;96.47;;;34.07;;
142;SDS011;63667;49.046;8.468;2022-12-19T15:46:15;91.30;;;34.90;;
142;SDS011;63667;49.046;8.468;2022-12-19T15:48:43;109.77;;;34.83;;
142;SDS011;63667;49.046;8.468;2022-12-19T15:51:12;111.37;;;36.27;;
142;SDS011;63667;49.046;8.468;2022-12-19T15:53:39;93.47;;;34.33;;
142;SDS011;63667;49.046;8.468;2022-12-19T15:56:07;116.20;;;39.93;;
142;SDS011;63667;49.046;8.468;2022-12-19T15:58:49;108.40;;;37.30;;
142;SDS011;63667;49.046;8.468;2022-12-19T16:01:15;93.47;;;34.10;;
142;SDS011;63667;49.046;8.468;2022-12-19T16:03:42;91.97;;;33.30;;
142;SDS011;63667;49.046;8.468;2022-12-19T16:06:11;100.07;;;34.77;;
142;SDS011;63667;49.046;8.468;2022-12-19T16:08:39;96.47;;;33.23;;
142;SDS011;63667;49.046;8.468;2022-12-19T16:11:05;103.77;;;35.00;;
142;SDS011;63667;49.046;8.468;2022-12-19T16:13:50;118.07;;;38.37;;
142;SDS011;63667;49.046;8.468;2022-12-19T16:16:18;114.50;;;37.47;;
142;SDS011;63667;49.046;8.468;2022-12-19T16:18:44;100.43;;;35.37;;
142;SDS011;63667;49.046;8.468;2022-12-19T16:21:19;110.40;;;38.37;;
142;SDS011;63667;49.046;8.468;2022-12-19T16:23:47;127.07;;;40.50;;
142;SDS011;63667;49.046;8.468;2022-12-19T16:28:48;110.83;;;35.93;;
142;SDS011;63667;49.046;8.468;2022-12-19T16:31:15;105.83;;;37.20;;
142;SDS011;63667;49.046;8.468;2022-12-19T16:33:44;120.37;;;38.83;;
142;SDS011;63667;49.046;8.468;2022-12-19T16:36:10;108.70;;;37.17;;
142;SDS011;63667;49.046;8.468;2022-12-19T16:38:36;118.00;;;37.83;;
142;SDS011;63667;49.046;8.468;2022-12-19T16:41:03;118.50;;;38.30;;
142;SDS011;63667;49.046;8.468;2022-12-19T16:43:30;114.07;;;37.93;;
142;SDS011;63667;49.046;8.468;2022-12-19T16:46:00;118.47;;;38.50;;
142;SDS011;63667;49.046;8.468;2022-12-19T16:48:30;115.00;;;40.83;;
142;SDS011;63667;49.046;8.468;2022-12-19T16:50:57;129.27;;;37.80;;
142;SDS011;63667;49.046;8.468;2022-12-19T16:53:23;107.40;;;38.27;;
142;SDS011;63667;49.046;8.468;2022-12-19T16:55:49;126.67;;;39.63;;
142;SDS011;63667;49.046;8.468;2022-12-19T16:58:20;112.17;;;35.80;;
142;SDS011;63667;49.046;8.468;2022-12-19T17:00:49;106.17;;;36.10;;
142;SDS011;63667;49.046;8.468;2022-12-19T17:06:01;111.13;;;34.10;;
142;SDS011;63667;49.046;8.468;2022-12-19T17:08:28;98.33;;;32.10;;
142;SDS011;63667;49.046;8.468;2022-12-19T17:10:54;94.77;;;33.60;;
142;SDS011;63667;49.046;8.468;2022-12-19T17:13:20;98.87;;;34.17;;
142;SDS011;63667;49.046;8.468;2022-12-19T17:15:49;105.90;;;35.63;;
142;SDS011;63667;49.046;8.468;2022-12-19T17:18:32;98.77;;;34.80;;
142;SDS011;63667;49.046;8.468;2022-12-19T17:20:59;104.50;;;35.30;;
142;SDS011;63667;49.046;8.468;2022-12-19T17:23:27;97.60;;;34.03;;
142;SDS011;63667;49.046;8.468;2022-12-19T17:25:54;95.80;;;34.83;;
142;SDS011;63667;49.046;8.468;2022-12-19T17:28:21;104.50;;;36.30;;
142;SDS011;63667;49.046;8.468;2022-12-19T17:30:48;126.80;;;40.87;;
142;SDS011;63667;49.046;8.468;2022-12-19T17:33:19;97.10;;;35.90;;
142;SDS011;63667;49.046;8.468;2022-12-19T17:35:46;110.27;;;37.73;;
142;SDS011;63667;49.046;8.468;2022-12-19T17:38:13;119.77;;;38.40;;
142;SDS011;63667;49.046;8.468;2022-12-19T17:40:44;121.20;;;37.33;;
142;SDS011;63667;49.046;8.468;2022-12-19T17:43:11;124.77;;;39.43;;
142;SDS011;63667;49.046;8.468;2022-12-19T17:45:37;107.63;;;36.67;;
142;SDS011;63667;49.046;8.468;2022-12-19T17:48:05;114.47;;;36.10;;
142;SDS011;63667;49.046;8.468;2022-12-19T17:50:39;98.40;;;33.93;;
142;SDS011;63667;49.046;8.468;2022-12-19T17:53:13;94.43;;;34.37;;
142;SDS011;63667;49.046;8.468;2022-12-19T17:55:49;79.60;;;31.50;;
142;SDS011;63667;49.046;8.468;2022-12-19T17:58:15;96.43;;;31.97;;
142;SDS011;63667;49.046;8.468;2022-12-19T18:00:41;100.03;;;33.47;;